sensor_id;sensor_type;location;lat;lon;timestamp;temperature;humidity
22917;DHT22;11624;53.250;7.456;2024-01-15T00:01:42;7.90;55.99
22917;DHT22;11624;53.250;7.456;2024-01-15T00:04:10;7.68;56.79
22917;DHT22;11624;53.250;7.456;2024-01-15T00:06:39;7.62;57.29
22917;DHT22;11624;53.250;7.456;2024-01-15T00:09:08;7.52;57.69
22917;DHT22;11624;53.250;7.456;2024-01-15T00:11:37;7.53;57.83
22917;DHT22;11624;53.250;7.456;2024-01-15T00:14:08;7.42;58.34
22917;DHT22;11624;53.250;7.456;2024-01-15T00:16:36;7.41;58.64
22917;DHT22;11624;53.250;7.456;2024-01-15T00:19:05;7.47;58.70
22917;DHT22;11624;53.250;7.456;2024-01-15T00:21:33;7.49;58.70
22917;DHT22;11624;53.250;7.456;2024-01-15T00:24:02;7.50;58.58
22917;DHT22;11624;53.250;7.456;2024-01-15T00:26:30;7.58;58.72
22917;DHT22;11624;53.250;7.456;2024-01-15T00:28:59;7.59;58.68
22917;DHT22;11624;53.250;7.456;2024-01-15T00:31:29;7.63;58.68
22917;DHT22;11624;53.250;7.456;2024-01-15T00:33:58;7.68;58.56
22917;DHT22;11624;53.250;7.456;2024-01-15T00:36:26;7.68;58.85
22917;DHT22;11624;53.250;7.456;2024-01-15T00:38:54;7.71;59.11
22917;DHT22;11624;53.250;7.456;2024-01-15T00:41:23;7.75;59.01
22917;DHT22;11624;53.250;7.456;2024-01-15T00:43:51;7.77;59.33
22917;DHT22;11624;53.250;7.456;2024-01-15T00:46:20;7.77;59.11
22917;DHT22;11624;53.250;7.456;2024-01-15T00:48:50;7.77;59.25
22917;DHT22;11624;53.250;7.456;2024-01-15T00:51:18;7.83;59.17
22917;DHT22;11624;53.250;7.456;2024-01-15T00:53:47;7.75;59.14
22917;DHT22;11624;53.250;7.456;2024-01-15T00:56:15;7.76;58.99
22917;DHT22;11624;53.250;7.456;2024-01-15T00:58:44;7.76;59.11
22917;DHT22;11624;53.250;7.456;2024-01-15T01:01:12;7.74;58.97
22917;DHT22;11624;53.250;7.456;2024-01-15T01:03:41;7.68;59.16
22917;DHT22;11624;53.250;7.456;2024-01-15T01:06:11;7.71;58.67
22917;DHT22;11624;53.250;7.456;2024-01-15T01:08:39;7.74;58.86
22917;DHT22;11624;53.250;7.456;2024-01-15T01:11:08;7.74;58.89
22917;DHT22;11624;53.250;7.456;2024-01-15T01:13:40;7.82;58.94
22917;DHT22;11624;53.250;7.456;2024-01-15T01:16:09;7.84;58.96
22917;DHT22;11624;53.250;7.456;2024-01-15T01:18:37;7.88;59.19
22917;DHT22;11624;53.250;7.456;2024-01-15T01:21:06;7.97;58.59
22917;DHT22;11624;53.250;7.456;2024-01-15T01:23:36;7.96;58.77
22917;DHT22;11624;53.250;7.456;2024-01-15T01:26:04;7.97;58.82
22917;DHT22;11624;53.250;7.456;2024-01-15T01:28:33;7.98;58.65
22917;DHT22;11624;53.250;7.456;2024-01-15T01:31:01;8.02;58.35
22917;DHT22;11624;53.250;7.456;2024-01-15T01:33:30;7.92;58.39
22917;DHT22;11624;53.250;7.456;2024-01-15T01:35:59;7.86;58.41
22917;DHT22;11624;53.250;7.456;2024-01-15T01:38:27;7.87;58.38
22917;DHT22;11624;53.250;7.456;2024-01-15T01:40:57;7.85;58.35
22917;DHT22;11624;53.250;7.456;2024-01-15T01:43:25;7.78;58.38
22917;DHT22;11624;53.250;7.456;2024-01-15T01:45:56;7.79;58.54
22917;DHT22;11624;53.250;7.456;2024-01-15T01:48:25;7.81;58.92
22917;DHT22;11624;53.250;7.456;2024-01-15T01:50:56;7.87;58.87
22917;DHT22;11624;53.250;7.456;2024-01-15T01:53:25;7.92;58.86
22917;DHT22;11624;53.250;7.456;2024-01-15T01:55:54;7.92;58.90
22917;DHT22;11624;53.250;7.456;2024-01-15T01:58:25;7.93;58.83
22917;DHT22;11624;53.250;7.456;2024-01-15T02:00:54;7.96;58.96
22917;DHT22;11624;53.250;7.456;2024-01-15T02:03:23;7.98;59.04
22917;DHT22;11624;53.250;7.456;2024-01-15T02:05:52;7.99;58.99
22917;DHT22;11624;53.250;7.456;2024-01-15T02:08:21;8.03;58.87
22917;DHT22;11624;53.250;7.456;2024-01-15T02:10:50;8.01;58.65
22917;DHT22;11624;53.250;7.456;2024-01-15T02:13:19;8.00;58.61
22917;DHT22;11624;53.250;7.456;2024-01-15T02:15:49;7.92;58.59
22917;DHT22;11624;53.250;7.456;2024-01-15T02:18:18;7.92;58.54
22917;DHT22;11624;53.250;7.456;2024-01-15T02:20:47;7.91;58.66
22917;DHT22;11624;53.250;7.456;2024-01-15T02:23:17;7.88;58.58
22917;DHT22;11624;53.250;7.456;2024-01-15T02:25:46;7.91;58.44
22917;DHT22;11624;53.250;7.456;2024-01-15T02:28:15;7.83;58.55
22917;DHT22;11624;53.250;7.456;2024-01-15T02:30:44;7.84;58.55
22917;DHT22;11624;53.250;7.456;2024-01-15T02:33:13;7.83;58.70
22917;DHT22;11624;53.250;7.456;2024-01-15T02:35:41;7.86;58.99
22917;DHT22;11624;53.250;7.456;2024-01-15T02:38:10;7.87;59.08
22917;DHT22;11624;53.250;7.456;2024-01-15T02:40:40;7.89;59.14
22917;DHT22;11624;53.250;7.456;2024-01-15T02:43:08;7.93;59.12
22917;DHT22;11624;53.250;7.456;2024-01-15T02:45:37;7.98;59.16
22917;DHT22;11624;53.250;7.456;2024-01-15T02:48:06;7.98;59.04
22917;DHT22;11624;53.250;7.456;2024-01-15T02:50:34;8.02;59.19
22917;DHT22;11624;53.250;7.456;2024-01-15T02:53:03;8.07;59.06
22917;DHT22;11624;53.250;7.456;2024-01-15T02:55:32;8.05;59.11
22917;DHT22;11624;53.250;7.456;2024-01-15T02:58:03;8.18;58.94
22917;DHT22;11624;53.250;7.456;2024-01-15T03:00:32;8.19;59.03
22917;DHT22;11624;53.250;7.456;2024-01-15T03:03:01;8.19;58.95
22917;DHT22;11624;53.250;7.456;2024-01-15T03:05:28;8.21;58.78
22917;DHT22;11624;53.250;7.456;2024-01-15T03:07:56;8.21;58.61
22917;DHT22;11624;53.250;7.456;2024-01-15T03:10:25;8.20;58.58
22917;DHT22;11624;53.250;7.456;2024-01-15T03:12:53;8.28;58.53
22917;DHT22;11624;53.250;7.456;2024-01-15T03:15:23;8.33;58.30
22917;DHT22;11624;53.250;7.456;2024-01-15T03:17:52;8.30;58.41
22917;DHT22;11624;53.250;7.456;2024-01-15T03:20:20;8.34;58.21
22917;DHT22;11624;53.250;7.456;2024-01-15T03:22:49;8.33;58.05
22917;DHT22;11624;53.250;7.456;2024-01-15T03:25:17;8.32;58.29
22917;DHT22;11624;53.250;7.456;2024-01-15T03:27:46;8.31;58.19
22917;DHT22;11624;53.250;7.456;2024-01-15T03:30:14;8.27;58.29
22917;DHT22;11624;53.250;7.456;2024-01-15T03:32:45;8.19;58.12
22917;DHT22;11624;53.250;7.456;2024-01-15T03:35:14;8.23;58.46
22917;DHT22;11624;53.250;7.456;2024-01-15T03:37:43;8.29;58.13
22917;DHT22;11624;53.250;7.456;2024-01-15T03:40:12;8.29;58.24
22917;DHT22;11624;53.250;7.456;2024-01-15T03:42:41;8.31;58.16
22917;DHT22;11624;53.250;7.456;2024-01-15T03:45:10;8.28;58.41
22917;DHT22;11624;53.250;7.456;2024-01-15T03:47:39;8.24;58.46
22917;DHT22;11624;53.250;7.456;2024-01-15T03:50:09;8.28;58.33
22917;DHT22;11624;53.250;7.456;2024-01-15T03:52:38;8.28;58.31
22917;DHT22;11624;53.250;7.456;2024-01-15T03:55:07;8.27;58.29
22917;DHT22;11624;53.250;7.456;2024-01-15T03:57:35;8.33;58.13
22917;DHT22;11624;53.250;7.456;2024-01-15T04:00:05;8.24;58.19
22917;DHT22;11624;53.250;7.456;2024-01-15T04:02:34;8.27;57.98
22917;DHT22;11624;53.250;7.456;2024-01-15T04:05:02;8.20;58.13
22917;DHT22;11624;53.250;7.456;2024-01-15T04:07:32;8.17;58.28
22917;DHT22;11624;53.250;7.456;2024-01-15T04:10:01;8.30;58.60
22917;DHT22;11624;53.250;7.456;2024-01-15T04:12:29;8.48;58.58
22917;DHT22;11624;53.250;7.456;2024-01-15T04:14:58;8.64;58.35
22917;DHT22;11624;53.250;7.456;2024-01-15T04:17:27;8.70;58.33
22917;DHT22;11624;53.250;7.456;2024-01-15T04:19:55;8.76;58.20
22917;DHT22;11624;53.250;7.456;2024-01-15T04:22:25;8.81;58.19
22917;DHT22;11624;53.250;7.456;2024-01-15T04:24:55;8.87;57.92
22917;DHT22;11624;53.250;7.456;2024-01-15T04:27:23;8.87;57.56
22917;DHT22;11624;53.250;7.456;2024-01-15T04:29:51;8.85;57.27
22917;DHT22;11624;53.250;7.456;2024-01-15T04:32:20;8.82;57.23
22917;DHT22;11624;53.250;7.456;2024-01-15T04:34:48;8.85;57.23
22917;DHT22;11624;53.250;7.456;2024-01-15T04:37:17;8.87;56.82
22917;DHT22;11624;53.250;7.456;2024-01-15T04:39:46;8.82;56.81
22917;DHT22;11624;53.250;7.456;2024-01-15T04:42:16;8.85;56.66
22917;DHT22;11624;53.250;7.456;2024-01-15T04:44:45;8.77;56.98
22917;DHT22;11624;53.250;7.456;2024-01-15T04:47:13;8.80;57.01
22917;DHT22;11624;53.250;7.456;2024-01-15T04:49:41;8.79;56.85
22917;DHT22;11624;53.250;7.456;2024-01-15T04:52:10;8.78;56.81
22917;DHT22;11624;53.250;7.456;2024-01-15T04:54:39;8.78;56.72
22917;DHT22;11624;53.250;7.456;2024-01-15T04:57:08;8.76;56.66
22917;DHT22;11624;53.250;7.456;2024-01-15T04:59:38;8.81;56.81
22917;DHT22;11624;53.250;7.456;2024-01-15T05:02:06;8.77;56.80
22917;DHT22;11624;53.250;7.456;2024-01-15T05:04:35;8.85;56.82
22917;DHT22;11624;53.250;7.456;2024-01-15T05:07:03;8.89;56.60
22917;DHT22;11624;53.250;7.456;2024-01-15T05:09:32;8.93;56.39
22917;DHT22;11624;53.250;7.456;2024-01-15T05:12:00;8.89;56.32
22917;DHT22;11624;53.250;7.456;2024-01-15T05:14:29;8.95;55.90
22917;DHT22;11624;53.250;7.456;2024-01-15T05:16:59;8.90;55.23
22917;DHT22;11624;53.250;7.456;2024-01-15T05:19:27;8.85;55.65
22917;DHT22;11624;53.250;7.456;2024-01-15T05:21:56;8.83;55.48
22917;DHT22;11624;53.250;7.456;2024-01-15T05:24:24;8.81;55.42
22917;DHT22;11624;53.250;7.456;2024-01-15T05:26:53;8.80;55.15
22917;DHT22;11624;53.250;7.456;2024-01-15T05:29:22;8.77;55.16
22917;DHT22;11624;53.250;7.456;2024-01-15T05:31:50;8.72;54.94
22917;DHT22;11624;53.250;7.456;2024-01-15T05:34:20;8.67;55.20
22917;DHT22;11624;53.250;7.456;2024-01-15T05:36:49;8.68;55.24
22917;DHT22;11624;53.250;7.456;2024-01-15T05:39:17;8.66;55.02
22917;DHT22;11624;53.250;7.456;2024-01-15T05:41:49;8.65;55.22
22917;DHT22;11624;53.250;7.456;2024-01-15T05:44:18;8.58;55.45
22917;DHT22;11624;53.250;7.456;2024-01-15T05:46:46;8.58;55.39
22917;DHT22;11624;53.250;7.456;2024-01-15T05:49:14;8.50;55.10
22917;DHT22;11624;53.250;7.456;2024-01-15T05:51:44;8.60;54.85
22917;DHT22;11624;53.250;7.456;2024-01-15T05:54:13;8.73;55.16
22917;DHT22;11624;53.250;7.456;2024-01-15T05:56:42;8.74;55.35
22917;DHT22;11624;53.250;7.456;2024-01-15T05:59:10;8.74;55.35
22917;DHT22;11624;53.250;7.456;2024-01-15T06:01:41;8.76;55.42
22917;DHT22;11624;53.250;7.456;2024-01-15T06:04:10;8.79;55.22
22917;DHT22;11624;53.250;7.456;2024-01-15T06:06:39;8.77;55.20
22917;DHT22;11624;53.250;7.456;2024-01-15T06:09:09;8.73;55.10
22917;DHT22;11624;53.250;7.456;2024-01-15T06:11:37;8.71;54.81
22917;DHT22;11624;53.250;7.456;2024-01-15T06:14:06;8.66;54.65
22917;DHT22;11624;53.250;7.456;2024-01-15T06:16:34;8.59;54.70
22917;DHT22;11624;53.250;7.456;2024-01-15T06:19:02;8.51;54.40
22917;DHT22;11624;53.250;7.456;2024-01-15T06:21:31;8.52;54.23
22917;DHT22;11624;53.250;7.456;2024-01-15T06:24:00;8.46;54.07
22917;DHT22;11624;53.250;7.456;2024-01-15T06:26:30;8.43;54.11
22917;DHT22;11624;53.250;7.456;2024-01-15T06:28:58;8.39;53.97
22917;DHT22;11624;53.250;7.456;2024-01-15T06:31:27;8.39;53.96
22917;DHT22;11624;53.250;7.456;2024-01-15T06:33:55;8.38;53.91
22917;DHT22;11624;53.250;7.456;2024-01-15T06:36:24;8.42;53.88
22917;DHT22;11624;53.250;7.456;2024-01-15T06:38:53;8.33;54.05
22917;DHT22;11624;53.250;7.456;2024-01-15T06:41:21;8.29;54.14
22917;DHT22;11624;53.250;7.456;2024-01-15T06:43:51;8.19;54.28
22917;DHT22;11624;53.250;7.456;2024-01-15T06:46:20;8.12;54.39
22917;DHT22;11624;53.250;7.456;2024-01-15T06:48:49;8.03;54.47
22917;DHT22;11624;53.250;7.456;2024-01-15T06:51:18;7.99;54.60
22917;DHT22;11624;53.250;7.456;2024-01-15T06:53:46;7.96;54.97
22917;DHT22;11624;53.250;7.456;2024-01-15T06:56:14;7.91;55.23
22917;DHT22;11624;53.250;7.456;2024-01-15T06:58:43;7.86;55.70
22917;DHT22;11624;53.250;7.456;2024-01-15T07:01:13;7.89;55.74
22917;DHT22;11624;53.250;7.456;2024-01-15T07:03:42;7.89;55.90
22917;DHT22;11624;53.250;7.456;2024-01-15T07:06:10;7.91;56.10
22917;DHT22;11624;53.250;7.456;2024-01-15T07:08:39;7.98;56.13
22917;DHT22;11624;53.250;7.456;2024-01-15T07:11:08;7.91;56.33
22917;DHT22;11624;53.250;7.456;2024-01-15T07:13:37;7.96;56.64
22917;DHT22;11624;53.250;7.456;2024-01-15T07:16:05;7.90;56.69
22917;DHT22;11624;53.250;7.456;2024-01-15T07:18:35;7.99;56.52
22917;DHT22;11624;53.250;7.456;2024-01-15T07:21:04;7.94;56.59
22917;DHT22;11624;53.250;7.456;2024-01-15T07:23:33;7.81;56.97
22917;DHT22;11624;53.250;7.456;2024-01-15T07:26:01;7.77;56.90
22917;DHT22;11624;53.250;7.456;2024-01-15T07:28:30;7.75;56.87
22917;DHT22;11624;53.250;7.456;2024-01-15T07:30:58;7.69;56.95
22917;DHT22;11624;53.250;7.456;2024-01-15T07:33:28;7.71;56.84
22917;DHT22;11624;53.250;7.456;2024-01-15T07:35:58;7.70;56.74
22917;DHT22;11624;53.250;7.456;2024-01-15T07:38:29;7.67;56.67
22917;DHT22;11624;53.250;7.456;2024-01-15T07:40:58;7.63;56.65
22917;DHT22;11624;53.250;7.456;2024-01-15T07:43:26;7.63;56.86
22917;DHT22;11624;53.250;7.456;2024-01-15T07:45:55;7.65;57.01
22917;DHT22;11624;53.250;7.456;2024-01-15T07:48:24;7.70;57.06
22917;DHT22;11624;53.250;7.456;2024-01-15T07:50:53;7.62;57.43
22917;DHT22;11624;53.250;7.456;2024-01-15T07:53:23;7.67;57.44
22917;DHT22;11624;53.250;7.456;2024-01-15T07:55:51;7.74;57.37
22917;DHT22;11624;53.250;7.456;2024-01-15T07:58:19;7.70;57.51
22917;DHT22;11624;53.250;7.456;2024-01-15T08:00:48;7.61;57.90
22917;DHT22;11624;53.250;7.456;2024-01-15T08:03:16;7.65;57.76
22917;DHT22;11624;53.250;7.456;2024-01-15T08:05:45;7.69;57.84
22917;DHT22;11624;53.250;7.456;2024-01-15T08:08:14;7.71;57.93
22917;DHT22;11624;53.250;7.456;2024-01-15T08:10:44;7.72;58.09
22917;DHT22;11624;53.250;7.456;2024-01-15T08:13:12;7.70;58.26
22917;DHT22;11624;53.250;7.456;2024-01-15T08:15:40;7.73;58.33
22917;DHT22;11624;53.250;7.456;2024-01-15T08:18:09;7.76;58.40
22917;DHT22;11624;53.250;7.456;2024-01-15T08:20:38;7.78;58.23
22917;DHT22;11624;53.250;7.456;2024-01-15T08:23:06;7.74;58.44
22917;DHT22;11624;53.250;7.456;2024-01-15T08:25:35;7.84;58.25
22917;DHT22;11624;53.250;7.456;2024-01-15T08:28:05;7.89;58.00
22917;DHT22;11624;53.250;7.456;2024-01-15T08:30:35;7.89;57.86
22917;DHT22;11624;53.250;7.456;2024-01-15T08:33:04;7.84;58.03
22917;DHT22;11624;53.250;7.456;2024-01-15T08:35:44;7.85;57.83
22917;DHT22;11624;53.250;7.456;2024-01-15T08:38:13;7.84;57.98
22917;DHT22;11624;53.250;7.456;2024-01-15T08:40:41;7.84;58.06
22917;DHT22;11624;53.250;7.456;2024-01-15T08:43:11;7.87;57.92
22917;DHT22;11624;53.250;7.456;2024-01-15T08:45:40;7.90;57.76
22917;DHT22;11624;53.250;7.456;2024-01-15T08:48:08;7.92;57.64
22917;DHT22;11624;53.250;7.456;2024-01-15T08:50:37;7.99;57.64
22917;DHT22;11624;53.250;7.456;2024-01-15T08:53:07;8.02;57.48
22917;DHT22;11624;53.250;7.456;2024-01-15T08:55:35;8.06;57.42
22917;DHT22;11624;53.250;7.456;2024-01-15T08:58:04;8.08;57.40
22917;DHT22;11624;53.250;7.456;2024-01-15T09:00:34;8.05;57.46
22917;DHT22;11624;53.250;7.456;2024-01-15T09:03:03;8.17;57.33
22917;DHT22;11624;53.250;7.456;2024-01-15T09:05:32;8.20;57.29
22917;DHT22;11624;53.250;7.456;2024-01-15T09:08:00;8.36;56.95
22917;DHT22;11624;53.250;7.456;2024-01-15T09:10:29;8.37;56.71
22917;DHT22;11624;53.250;7.456;2024-01-15T09:12:57;8.31;56.36
22917;DHT22;11624;53.250;7.456;2024-01-15T09:15:27;8.32;56.35
22917;DHT22;11624;53.250;7.456;2024-01-15T09:17:57;8.42;56.13
22917;DHT22;11624;53.250;7.456;2024-01-15T09:20:26;8.39;55.97
22917;DHT22;11624;53.250;7.456;2024-01-15T09:22:55;8.30;55.80
22917;DHT22;11624;53.250;7.456;2024-01-15T09:25:23;8.26;55.85
22917;DHT22;11624;53.250;7.456;2024-01-15T09:27:52;8.14;56.05
22917;DHT22;11624;53.250;7.456;2024-01-15T09:30:20;7.97;56.57
22917;DHT22;11624;53.250;7.456;2024-01-15T09:32:49;7.89;56.55
22917;DHT22;11624;53.250;7.456;2024-01-15T09:35:19;7.81;56.90
22917;DHT22;11624;53.250;7.456;2024-01-15T09:37:50;7.75;57.13
22917;DHT22;11624;53.250;7.456;2024-01-15T09:40:20;7.79;57.04
22917;DHT22;11624;53.250;7.456;2024-01-15T09:42:50;7.83;57.16
22917;DHT22;11624;53.250;7.456;2024-01-15T09:45:18;7.84;57.23
22917;DHT22;11624;53.250;7.456;2024-01-15T09:47:47;7.82;57.34
22917;DHT22;11624;53.250;7.456;2024-01-15T09:50:16;7.75;57.67
22917;DHT22;11624;53.250;7.456;2024-01-15T09:52:46;7.77;57.58
22917;DHT22;11624;53.250;7.456;2024-01-15T09:55:15;7.72;57.83
22917;DHT22;11624;53.250;7.456;2024-01-15T09:57:44;7.69;57.98
22917;DHT22;11624;53.250;7.456;2024-01-15T10:00:17;7.71;57.90
22917;DHT22;11624;53.250;7.456;2024-01-15T10:02:46;7.68;58.10
22917;DHT22;11624;53.250;7.456;2024-01-15T10:05:14;7.68;58.28
22917;DHT22;11624;53.250;7.456;2024-01-15T10:07:43;7.70;58.22
22917;DHT22;11624;53.250;7.456;2024-01-15T10:10:15;7.74;58.22
22917;DHT22;11624;53.250;7.456;2024-01-15T10:12:44;7.71;58.21
22917;DHT22;11624;53.250;7.456;2024-01-15T10:15:12;7.63;58.29
22917;DHT22;11624;53.250;7.456;2024-01-15T10:17:41;7.49;58.41
22917;DHT22;11624;53.250;7.456;2024-01-15T10:20:11;7.48;58.67
22917;DHT22;11624;53.250;7.456;2024-01-15T10:22:40;7.56;58.52
22917;DHT22;11624;53.250;7.456;2024-01-15T10:25:11;7.56;58.63
22917;DHT22;11624;53.250;7.456;2024-01-15T10:27:41;7.55;58.66
22917;DHT22;11624;53.250;7.456;2024-01-15T10:30:11;7.54;58.49
22917;DHT22;11624;53.250;7.456;2024-01-15T10:32:42;7.58;58.22
22917;DHT22;11624;53.250;7.456;2024-01-15T10:35:14;7.47;58.62
22917;DHT22;11624;53.250;7.456;2024-01-15T10:37:42;7.54;58.58
22917;DHT22;11624;53.250;7.456;2024-01-15T10:40:14;7.48;58.64
22917;DHT22;11624;53.250;7.456;2024-01-15T10:42:44;7.50;58.82
22917;DHT22;11624;53.250;7.456;2024-01-15T10:45:14;7.59;58.74
22917;DHT22;11624;53.250;7.456;2024-01-15T10:47:44;7.55;58.87
22917;DHT22;11624;53.250;7.456;2024-01-15T10:50:13;7.60;58.90
22917;DHT22;11624;53.250;7.456;2024-01-15T10:52:42;7.65;58.90
22917;DHT22;11624;53.250;7.456;2024-01-15T10:55:11;7.72;58.90
22917;DHT22;11624;53.250;7.456;2024-01-15T10:57:48;7.69;58.90
22917;DHT22;11624;53.250;7.456;2024-01-15T11:00:17;7.79;58.91
22917;DHT22;11624;53.250;7.456;2024-01-15T11:02:46;7.87;58.86
22917;DHT22;11624;53.250;7.456;2024-01-15T11:05:15;7.90;59.32
22917;DHT22;11624;53.250;7.456;2024-01-15T11:07:45;8.22;59.66
22917;DHT22;11624;53.250;7.456;2024-01-15T11:10:38;8.43;58.25
22917;DHT22;11624;53.250;7.456;2024-01-15T11:13:10;8.47;57.79
22917;DHT22;11624;53.250;7.456;2024-01-15T11:16:00;8.49;57.57
22917;DHT22;11624;53.250;7.456;2024-01-15T11:18:29;8.53;58.03
22917;DHT22;11624;53.250;7.456;2024-01-15T11:21:25;8.56;57.64
22917;DHT22;11624;53.250;7.456;2024-01-15T11:23:55;8.74;58.12
22917;DHT22;11624;53.250;7.456;2024-01-15T11:26:29;8.81;57.44
22917;DHT22;11624;53.250;7.456;2024-01-15T11:28:59;8.74;56.77
22917;DHT22;11624;53.250;7.456;2024-01-15T11:31:28;8.68;56.99
22917;DHT22;11624;53.250;7.456;2024-01-15T11:33:57;8.67;57.18
22917;DHT22;11624;53.250;7.456;2024-01-15T11:37:01;8.65;57.13
22917;DHT22;11624;53.250;7.456;2024-01-15T11:39:40;8.91;57.35
22917;DHT22;11624;53.250;7.456;2024-01-15T11:42:11;9.37;60.19
22917;DHT22;11624;53.250;7.456;2024-01-15T11:44:41;10.03;60.18
22917;DHT22;11624;53.250;7.456;2024-01-15T11:47:11;10.38;57.57
22917;DHT22;11624;53.250;7.456;2024-01-15T11:49:58;10.31;54.94
22917;DHT22;11624;53.250;7.456;2024-01-15T11:52:33;9.92;53.95
22917;DHT22;11624;53.250;7.456;2024-01-15T11:55:17;9.62;53.88
22917;DHT22;11624;53.250;7.456;2024-01-15T11:57:50;9.33;54.01
22917;DHT22;11624;53.250;7.456;2024-01-15T12:00:21;9.10;54.65
22917;DHT22;11624;53.250;7.456;2024-01-15T12:02:50;9.00;55.04
22917;DHT22;11624;53.250;7.456;2024-01-15T12:05:20;8.82;55.45
22917;DHT22;11624;53.250;7.456;2024-01-15T12:07:49;8.72;55.90
22917;DHT22;11624;53.250;7.456;2024-01-15T12:10:19;8.64;55.91
22917;DHT22;11624;53.250;7.456;2024-01-15T12:12:56;8.58;55.54
22917;DHT22;11624;53.250;7.456;2024-01-15T12:15:27;8.43;56.38
22917;DHT22;11624;53.250;7.456;2024-01-15T12:17:58;8.39;56.70
22917;DHT22;11624;53.250;7.456;2024-01-15T12:20:27;8.42;56.81
22917;DHT22;11624;53.250;7.456;2024-01-15T12:22:56;8.49;56.99
22917;DHT22;11624;53.250;7.456;2024-01-15T12:25:30;8.57;57.13
22917;DHT22;11624;53.250;7.456;2024-01-15T12:28:00;8.63;57.17
22917;DHT22;11624;53.250;7.456;2024-01-15T12:30:30;8.68;57.01
22917;DHT22;11624;53.250;7.456;2024-01-15T12:33:02;8.59;56.81
22917;DHT22;11624;53.250;7.456;2024-01-15T12:35:33;8.51;56.88
22917;DHT22;11624;53.250;7.456;2024-01-15T12:38:02;8.43;56.93
22917;DHT22;11624;53.250;7.456;2024-01-15T12:40:32;8.30;56.65
22917;DHT22;11624;53.250;7.456;2024-01-15T12:43:03;8.11;57.22
22917;DHT22;11624;53.250;7.456;2024-01-15T12:45:33;8.11;57.19
22917;DHT22;11624;53.250;7.456;2024-01-15T12:48:04;8.11;57.51
22917;DHT22;11624;53.250;7.456;2024-01-15T12:50:33;8.19;57.47
22917;DHT22;11624;53.250;7.456;2024-01-15T12:53:02;8.34;57.60
22917;DHT22;11624;53.250;7.456;2024-01-15T12:55:31;8.51;57.75
22917;DHT22;11624;53.250;7.456;2024-01-15T12:58:01;8.70;57.68
22917;DHT22;11624;53.250;7.456;2024-01-15T13:00:30;8.81;57.55
22917;DHT22;11624;53.250;7.456;2024-01-15T13:03:00;8.96;57.27
22917;DHT22;11624;53.250;7.456;2024-01-15T13:05:32;9.00;57.10
22917;DHT22;11624;53.250;7.456;2024-01-15T13:08:01;9.02;57.16
22917;DHT22;11624;53.250;7.456;2024-01-15T13:10:31;9.07;57.13
22917;DHT22;11624;53.250;7.456;2024-01-15T13:12:59;9.15;57.11
22917;DHT22;11624;53.250;7.456;2024-01-15T13:15:29;9.22;57.15
22917;DHT22;11624;53.250;7.456;2024-01-15T13:17:59;9.29;57.10
22917;DHT22;11624;53.250;7.456;2024-01-15T13:20:28;9.50;58.31
22917;DHT22;11624;53.250;7.456;2024-01-15T13:22:56;9.94;58.73
22917;DHT22;11624;53.250;7.456;2024-01-15T13:25:25;10.11;58.18
22917;DHT22;11624;53.250;7.456;2024-01-15T13:27:53;10.15;57.41
22917;DHT22;11624;53.250;7.456;2024-01-15T13:30:22;10.15;57.13
22917;DHT22;11624;53.250;7.456;2024-01-15T13:32:50;10.22;56.82
22917;DHT22;11624;53.250;7.456;2024-01-15T13:35:21;10.21;56.26
22917;DHT22;11624;53.250;7.456;2024-01-15T13:37:49;10.12;55.87
22917;DHT22;11624;53.250;7.456;2024-01-15T13:40:17;9.96;55.62
22917;DHT22;11624;53.250;7.456;2024-01-15T13:42:47;9.72;55.32
22917;DHT22;11624;53.250;7.456;2024-01-15T13:45:16;9.56;55.69
22917;DHT22;11624;53.250;7.456;2024-01-15T13:47:45;9.51;55.97
22917;DHT22;11624;53.250;7.456;2024-01-15T13:50:13;9.77;57.02
22917;DHT22;11624;53.250;7.456;2024-01-15T13:52:43;10.19;58.35
22917;DHT22;11624;53.250;7.456;2024-01-15T13:55:12;10.60;57.26
22917;DHT22;11624;53.250;7.456;2024-01-15T13:57:41;10.65;55.39
22917;DHT22;11624;53.250;7.456;2024-01-15T14:00:10;10.59;54.71
22917;DHT22;11624;53.250;7.456;2024-01-15T14:02:39;10.50;54.20
22917;DHT22;11624;53.250;7.456;2024-01-15T14:05:09;10.36;54.12
22917;DHT22;11624;53.250;7.456;2024-01-15T14:07:40;10.21;54.07
22917;DHT22;11624;53.250;7.456;2024-01-15T14:10:11;10.16;54.09
22917;DHT22;11624;53.250;7.456;2024-01-15T14:12:40;10.09;54.38
22917;DHT22;11624;53.250;7.456;2024-01-15T14:15:09;10.08;54.59
22917;DHT22;11624;53.250;7.456;2024-01-15T14:17:37;10.07;54.73
22917;DHT22;11624;53.250;7.456;2024-01-15T14:20:07;10.07;54.62
22917;DHT22;11624;53.250;7.456;2024-01-15T14:22:37;10.05;54.96
22917;DHT22;11624;53.250;7.456;2024-01-15T14:25:06;10.07;55.14
22917;DHT22;11624;53.250;7.456;2024-01-15T14:27:36;10.01;55.30
22917;DHT22;11624;53.250;7.456;2024-01-15T14:30:06;9.98;55.23
22917;DHT22;11624;53.250;7.456;2024-01-15T14:32:35;10.00;54.93
22917;DHT22;11624;53.250;7.456;2024-01-15T14:35:05;9.99;54.90
22917;DHT22;11624;53.250;7.456;2024-01-15T14:37:35;9.90;54.39
22917;DHT22;11624;53.250;7.456;2024-01-15T14:40:04;9.78;54.40
22917;DHT22;11624;53.250;7.456;2024-01-15T14:42:36;9.55;54.57
22917;DHT22;11624;53.250;7.456;2024-01-15T14:45:05;9.42;54.91
22917;DHT22;11624;53.250;7.456;2024-01-15T14:47:39;9.39;55.10
22917;DHT22;11624;53.250;7.456;2024-01-15T14:50:09;9.32;55.19
22917;DHT22;11624;53.250;7.456;2024-01-15T14:52:39;9.35;55.24
22917;DHT22;11624;53.250;7.456;2024-01-15T14:55:09;9.40;54.89
22917;DHT22;11624;53.250;7.456;2024-01-15T14:57:39;9.37;54.82
22917;DHT22;11624;53.250;7.456;2024-01-15T15:00:08;9.34;54.86
22917;DHT22;11624;53.250;7.456;2024-01-15T15:02:39;9.34;54.75
22917;DHT22;11624;53.250;7.456;2024-01-15T15:05:08;9.21;54.76
22917;DHT22;11624;53.250;7.456;2024-01-15T15:07:37;9.17;54.75
22917;DHT22;11624;53.250;7.456;2024-01-15T15:10:07;9.04;54.75
22917;DHT22;11624;53.250;7.456;2024-01-15T15:12:36;8.96;54.97
22917;DHT22;11624;53.250;7.456;2024-01-15T15:15:07;8.97;54.84
22917;DHT22;11624;53.250;7.456;2024-01-15T15:17:43;8.93;54.79
22917;DHT22;11624;53.250;7.456;2024-01-15T15:20:12;8.98;54.86
22917;DHT22;11624;53.250;7.456;2024-01-15T15:22:40;8.95;54.98
22917;DHT22;11624;53.250;7.456;2024-01-15T15:25:09;8.91;55.00
22917;DHT22;11624;53.250;7.456;2024-01-15T15:27:39;8.88;55.04
22917;DHT22;11624;53.250;7.456;2024-01-15T15:30:10;8.89;54.58
22917;DHT22;11624;53.250;7.456;2024-01-15T15:32:38;8.80;54.65
22917;DHT22;11624;53.250;7.456;2024-01-15T15:35:07;8.77;54.45
22917;DHT22;11624;53.250;7.456;2024-01-15T15:37:36;8.65;54.36
22917;DHT22;11624;53.250;7.456;2024-01-15T15:40:06;8.48;54.55
22917;DHT22;11624;53.250;7.456;2024-01-15T15:42:36;8.34;54.81
22917;DHT22;11624;53.250;7.456;2024-01-15T15:45:05;8.20;55.07
22917;DHT22;11624;53.250;7.456;2024-01-15T15:47:36;8.20;54.91
22917;DHT22;11624;53.250;7.456;2024-01-15T15:50:05;8.06;55.00
22917;DHT22;11624;53.250;7.456;2024-01-15T15:52:34;7.92;55.26
22917;DHT22;11624;53.250;7.456;2024-01-15T15:55:03;7.89;55.06
22917;DHT22;11624;53.250;7.456;2024-01-15T15:57:32;7.73;55.43
22917;DHT22;11624;53.250;7.456;2024-01-15T16:00:01;7.70;55.77